createdAt,value
2018-01-15T00:02:06.720Z,27.37
2018-01-15T00:04:34.155Z,24.45
2018-01-15T00:07:01.912Z,21.90
2018-01-15T00:09:29.340Z,24.52
2018-01-15T00:11:57.549Z,24.00
2018-01-15T00:14:25.072Z,23.85
2018-01-15T00:16:53.287Z,24.77
2018-01-15T00:19:20.754Z,22.87
2018-01-15T00:21:48.195Z,21.67
2018-01-15T00:24:15.660Z,24.65
2018-01-15T00:26:43.101Z,23.77
2018-01-15T00:29:10.704Z,22.20
2018-01-15T00:31:38.142Z,20.65
2018-01-15T00:34:05.600Z,20.90
2018-01-15T00:36:33.804Z,24.67
2018-01-15T00:39:01.273Z,24.20
2018-01-15T00:41:28.700Z,22.23
2018-01-15T00:43:56.156Z,22.02
2018-01-15T00:46:23.597Z,23.08
2018-01-15T00:48:51.484Z,20.98
2018-01-15T00:51:18.924Z,21.48
2018-01-15T00:53:46.368Z,24.48
2018-01-15T00:56:14.204Z,21.35
2018-01-15T00:58:42.408Z,22.45
2018-01-15T01:01:10.161Z,23.05
2018-01-15T01:03:37.599Z,22.00
2018-01-15T01:06:05.811Z,21.55
2018-01-15T01:08:34.105Z,22.67
2018-01-15T01:11:01.882Z,22.98
2018-01-15T01:13:29.323Z,20.48
2018-01-15T01:15:56.767Z,22.48
2018-01-15T01:18:24.230Z,21.50
2018-01-15T01:20:51.696Z,23.15
2018-01-15T01:23:19.135Z,21.95
2018-01-15T01:25:46.709Z,23.25
2018-01-15T01:28:14.139Z,21.23
2018-01-15T01:30:41.571Z,22.80
2018-01-15T01:33:09.037Z,23.08
2018-01-15T01:35:53.203Z,26.85
2018-01-15T01:38:20.673Z,22.35
2018-01-15T01:40:48.109Z,22.13
2018-01-15T01:43:16.645Z,22.08
2018-01-15T01:45:44.084Z,22.62
2018-01-15T01:48:11.896Z,21.33
2018-01-15T01:50:39.336Z,22.55
2018-01-15T01:53:06.780Z,23.95
2018-01-15T01:55:34.240Z,22.70
2018-01-15T01:58:07.048Z,24.48
2018-01-15T02:00:36.452Z,22.52
2018-01-15T02:03:03.959Z,22.90
2018-01-15T02:05:31.387Z,23.25
2018-01-15T02:07:59.736Z,23.83
2018-01-15T02:10:27.172Z,25.90
2018-01-15T02:12:54.613Z,22.62
2018-01-15T02:15:22.070Z,23.08
2018-01-15T02:17:56.392Z,21.35
2018-01-15T02:20:23.941Z,23.25
2018-01-15T02:22:51.368Z,23.05
2018-01-15T02:25:19.636Z,20.65
2018-01-15T02:27:47.080Z,20.67
2018-01-15T02:30:14.532Z,21.50
2018-01-15T02:32:41.973Z,23.85
2018-01-15T02:35:09.453Z,24.65
2018-01-15T02:37:36.888Z,24.85
2018-01-15T02:40:04.324Z,24.37
2018-01-15T02:42:32.309Z,23.05
2018-01-15T02:44:59.752Z,23.92
2018-01-15T02:47:27.188Z,21.42
2018-01-15T02:49:54.653Z,24.40
2018-01-15T02:52:22.112Z,23.98
2018-01-15T02:54:49.548Z,22.33
2018-01-15T02:57:22.896Z,23.85
2018-01-15T02:59:50.467Z,24.25
2018-01-15T03:02:24.265Z,23.12
2018-01-15T03:04:51.704Z,25.58
2018-01-15T03:07:19.157Z,23.90
2018-01-15T03:09:46.620Z,23.48
2018-01-15T03:12:14.080Z,21.70
2018-01-15T03:14:41.522Z,22.80
2018-01-15T03:17:09.003Z,22.80
2018-01-15T03:19:36.521Z,21.77
2018-01-15T03:22:04.720Z,22.83
2018-01-15T03:24:33.013Z,22.80
2018-01-15T03:27:00.450Z,22.20
2018-01-15T03:29:27.884Z,25.65
2018-01-15T03:31:56.182Z,25.23
2018-01-15T03:34:23.640Z,24.05
2018-01-15T03:36:51.076Z,23.48
2018-01-15T03:39:19.472Z,24.12
2018-01-15T03:41:47.242Z,24.37
2018-01-15T03:44:14.678Z,23.40
2018-01-15T03:46:42.881Z,25.65
2018-01-15T03:49:10.336Z,23.27
2018-01-15T03:51:42.629Z,25.35
2018-01-15T03:54:10.069Z,21.42
2018-01-15T03:56:38.019Z,21.95
2018-01-15T03:59:05.447Z,22.05
2018-01-15T04:01:33.669Z,24.37
2018-01-15T04:04:01.123Z,23.58
2018-01-15T04:06:28.592Z,23.87
2018-01-15T04:08:56.031Z,23.60
2018-01-15T04:11:23.472Z,24.77
2018-01-15T04:13:51.849Z,24.87
2018-01-15T04:16:19.284Z,25.10
2018-01-15T04:18:46.721Z,26.10
2018-01-15T04:21:14.220Z,24.30
2018-01-15T04:23:42.448Z,23.75
2018-01-15T04:26:09.883Z,25.25
2018-01-15T04:28:37.344Z,28.75
2018-01-15T04:31:04.786Z,24.15
2018-01-15T04:33:32.673Z,24.95
2018-01-15T04:36:00.137Z,22.42
2018-01-15T04:38:27.601Z,21.10
2018-01-15T04:40:55.036Z,26.45
2018-01-15T04:43:22.480Z,25.60
2018-01-15T04:45:49.956Z,23.70
2018-01-15T04:48:17.392Z,25.77
2018-01-15T04:50:44.832Z,24.52
2018-01-15T04:53:13.461Z,24.33
2018-01-15T04:58:33.512Z,24.63
2018-01-15T05:01:01.742Z,27.42
2018-01-15T05:03:29.181Z,22.87
2018-01-15T05:05:56.652Z,26.67
2018-01-15T05:08:24.137Z,25.70
2018-01-15T05:10:51.663Z,23.95
2018-01-15T05:13:19.099Z,25.02
2018-01-15T05:15:46.566Z,25.08
2018-01-15T05:18:14.004Z,26.27
2018-01-15T05:20:42.231Z,27.17
2018-01-15T05:23:09.680Z,26.10
2018-01-15T05:25:37.121Z,27.65
2018-01-15T05:28:06.608Z,23.75
2018-01-15T05:30:34.049Z,22.98
2018-01-15T05:33:02.584Z,25.85
2018-01-15T05:35:30.024Z,24.15
2018-01-15T05:37:57.456Z,27.70
2018-01-15T05:40:25.260Z,24.70
2018-01-15T05:42:52.713Z,25.37
2018-01-15T05:45:20.156Z,26.70
2018-01-15T05:47:47.952Z,23.95
2018-01-15T05:50:30.404Z,26.05
2018-01-15T05:52:58.632Z,25.50
2018-01-15T05:58:00.983Z,29.55
2018-01-15T06:00:28.544Z,24.83
2018-01-15T06:02:55.978Z,25.45
2018-01-15T06:05:24.220Z,25.70
2018-01-15T06:07:51.665Z,25.00
2018-01-15T06:10:19.091Z,25.50
2018-01-15T06:12:47.390Z,28.98
2018-01-15T06:15:26.748Z,26.23
2018-01-15T06:17:54.193Z,28.08
2018-01-15T06:20:21.971Z,28.23
2018-01-15T06:22:49.395Z,26.55
2018-01-15T06:25:16.836Z,27.33
2018-01-15T06:27:45.873Z,25.60
2018-01-15T06:30:13.314Z,28.23
2018-01-15T06:32:40.755Z,33.58
2018-01-15T06:35:08.327Z,29.95
2018-01-15T06:37:35.763Z,31.12
2018-01-15T06:40:03.209Z,40.53
2018-01-15T06:42:31.841Z,83.30
2018-01-15T06:44:59.281Z,45.17
2018-01-15T06:47:27.492Z,104.82
2018-01-15T06:49:54.956Z,41.65
2018-01-15T06:52:23.815Z,34.80
2018-01-15T06:54:51.254Z,36.40
2018-01-15T06:57:18.876Z,33.80
2018-01-15T06:59:47.199Z,28.20
2018-01-15T07:02:15.423Z,37.90
2018-01-15T07:04:42.868Z,46.53
2018-01-15T07:07:13.073Z,36.80
2018-01-15T07:09:40.510Z,31.55
2018-01-15T07:12:07.950Z,32.42
2018-01-15T07:14:35.417Z,36.13
2018-01-15T07:17:02.868Z,27.85
2018-01-15T07:19:30.468Z,35.55
2018-01-15T07:21:57.939Z,36.28
2018-01-15T07:24:26.324Z,43.85
2018-01-15T07:26:53.764Z,44.55
2018-01-15T07:29:21.239Z,41.80
2018-01-15T07:31:48.682Z,40.30
2018-01-15T07:34:16.180Z,36.47
2018-01-15T07:36:44.400Z,29.15
2018-01-15T07:39:11.831Z,28.75
2018-01-15T07:41:44.649Z,36.97
2018-01-15T07:44:12.096Z,76.60
2018-01-15T07:46:44.656Z,35.58
2018-01-15T07:49:12.101Z,45.63
2018-01-15T07:51:39.557Z,39.75
2018-01-15T07:54:07.025Z,36.35
2018-01-15T07:56:34.460Z,34.70
2018-01-15T07:59:03.094Z,36.63
2018-01-15T08:01:30.548Z,26.33
2018-01-15T08:03:57.981Z,31.87
2018-01-15T08:06:25.436Z,38.25
2018-01-15T08:09:14.865Z,29.10
2018-01-15T08:11:42.567Z,33.67
2018-01-15T08:14:10.013Z,29.05
2018-01-15T08:16:38.225Z,28.60
2018-01-15T08:19:05.715Z,28.65
2018-01-15T08:21:33.190Z,26.17
2018-01-15T08:24:01.403Z,29.00
2018-01-15T08:26:28.882Z,30.25
2018-01-15T08:28:56.320Z,26.87
2018-01-15T08:31:23.757Z,28.30
2018-01-15T08:33:51.335Z,28.55
2018-01-15T08:36:18.781Z,28.27
2018-01-15T08:38:46.220Z,29.12
2018-01-15T08:41:14.756Z,27.75
2018-01-15T08:43:42.208Z,26.85
2018-01-15T08:46:09.648Z,30.62
2018-01-15T08:48:37.545Z,29.35
2018-01-15T08:51:04.980Z,30.10
2018-01-15T08:53:32.429Z,32.47
2018-01-15T08:56:00.038Z,32.55
2018-01-15T08:58:27.467Z,28.15
2018-01-15T09:00:54.924Z,36.55
2018-01-15T09:03:22.366Z,28.65
2018-01-15T09:05:49.836Z,29.15
2018-01-15T09:08:17.277Z,33.08
2018-01-15T09:10:45.386Z,101.80
2018-01-15T09:13:12.841Z,35.67
2018-01-15T09:15:40.278Z,33.67
2018-01-15T09:18:08.164Z,31.55
2018-01-15T09:20:35.611Z,30.20
2018-01-15T09:23:03.053Z,34.40
2018-01-15T09:25:30.520Z,37.80
2018-01-15T09:27:57.973Z,30.48
2018-01-15T09:30:26.195Z,29.75
2018-01-15T09:32:53.638Z,35.70
2018-01-15T09:35:21.076Z,32.20
2018-01-15T09:37:48.672Z,29.17
2018-01-15T09:40:17.081Z,29.30
2018-01-15T09:42:44.519Z,30.10
2018-01-15T09:45:30.758Z,26.20
2018-01-15T09:47:58.252Z,27.37
2018-01-15T09:50:25.668Z,26.85
2018-01-15T09:52:53.113Z,25.95
2018-01-15T09:55:20.900Z,26.87
2018-01-15T09:57:48.374Z,27.02
2018-01-15T10:00:15.808Z,27.23
2018-01-15T10:02:43.301Z,25.62
2018-01-15T10:05:10.753Z,24.33
2018-01-15T10:07:38.184Z,24.87
2018-01-15T10:10:06.065Z,27.77
2018-01-15T10:12:33.544Z,27.15
2018-01-15T10:15:01.000Z,39.70
2018-01-15T10:23:27.225Z,26.70
2018-01-15T10:25:54.679Z,26.90
2018-01-15T10:28:22.115Z,32.10
2018-01-15T10:30:49.956Z,29.23
2018-01-15T10:33:17.392Z,42.10
2018-01-15T10:35:44.832Z,36.83
2018-01-15T10:38:12.357Z,35.78
2018-01-15T10:40:39.946Z,36.10
2018-01-15T10:43:07.376Z,33.45
2018-01-15T10:45:34.819Z,50.63
2018-01-15T10:48:03.069Z,43.78
2018-01-15T10:50:30.510Z,33.28
2018-01-15T10:52:58.472Z,24.23
2018-01-15T10:55:28.523Z,26.25
2018-01-15T10:57:55.961Z,33.80
2018-01-15T11:00:29.246Z,23.00
2018-01-15T11:02:56.680Z,26.23
2018-01-15T11:05:24.125Z,27.00
2018-01-15T11:10:35.796Z,25.73
2018-01-15T11:13:03.237Z,26.00
2018-01-15T11:15:30.680Z,27.00
2018-01-15T11:17:58.156Z,24.85
2018-01-15T11:20:25.604Z,22.65
2018-01-15T11:22:53.147Z,21.40
2018-01-15T11:25:20.632Z,24.00
2018-01-15T11:27:53.465Z,25.15
2018-01-15T11:30:20.847Z,24.83
2018-01-15T11:32:48.287Z,22.67
2018-01-15T11:35:15.755Z,25.40
2018-01-15T11:37:43.532Z,25.70
2018-01-15T11:40:10.969Z,23.00
2018-01-15T11:42:38.419Z,27.23
2018-01-15T11:45:06.048Z,27.00
2018-01-15T11:47:34.261Z,27.10
2018-01-15T11:50:01.709Z,24.73
2018-01-15T11:52:29.535Z,25.73
2018-01-15T11:54:57.905Z,23.52
2018-01-15T11:57:25.339Z,24.27
2018-01-15T11:59:52.816Z,23.77
2018-01-15T12:02:20.261Z,24.02
2018-01-15T12:04:47.860Z,23.55
2018-01-15T12:07:16.067Z,28.75
2018-01-15T12:09:43.550Z,26.95
2018-01-15T12:12:11.065Z,27.33
2018-01-15T12:14:38.525Z,25.73
2018-01-15T12:17:06.745Z,26.48
2018-01-15T12:19:34.212Z,26.10
2018-01-15T12:22:02.627Z,22.87
2018-01-15T12:24:30.089Z,22.60
2018-01-15T12:26:57.509Z,27.52
2018-01-15T12:29:25.027Z,27.27
2018-01-15T12:31:54.897Z,25.37
2018-01-15T12:34:22.336Z,26.20
2018-01-15T12:36:49.784Z,23.62
2018-01-15T12:39:17.372Z,26.02
2018-01-15T12:41:45.304Z,24.73
2018-01-15T12:44:19.611Z,26.33
2018-01-15T12:46:47.241Z,24.85
2018-01-15T12:49:15.443Z,21.75
2018-01-15T12:51:42.888Z,24.12
2018-01-15T12:54:10.348Z,22.67
2018-01-15T12:56:40.459Z,22.85
2018-01-15T12:59:07.988Z,23.12
2018-01-15T13:01:35.425Z,20.37
2018-01-15T13:04:03.284Z,23.52
2018-01-15T13:06:42.468Z,23.50
2018-01-15T13:09:09.992Z,22.98
2018-01-15T13:11:37.434Z,25.95
2018-01-15T13:14:04.930Z,22.85
2018-01-15T13:16:32.361Z,22.35
2018-01-15T13:19:00.119Z,20.88
2018-01-15T13:21:27.557Z,19.87
2018-01-15T13:23:55.065Z,28.00
2018-01-15T13:26:23.272Z,21.75
2018-01-15T13:28:50.738Z,22.73
2018-01-15T13:31:18.179Z,34.95
2018-01-15T13:33:45.704Z,39.05
2018-01-15T13:36:13.280Z,33.00
2018-01-15T13:38:41.496Z,23.65
2018-01-15T13:41:11.437Z,25.30
2018-01-15T13:43:38.868Z,28.70
2018-01-15T13:46:06.325Z,20.62
2018-01-15T13:48:33.787Z,35.47
2018-01-15T13:51:01.269Z,27.02
2018-01-15T13:53:28.720Z,23.55
2018-01-15T13:55:56.356Z,20.35
2018-01-15T13:58:25.363Z,22.00
2018-01-15T14:00:52.813Z,23.40
2018-01-15T14:03:20.252Z,20.77
2018-01-15T14:05:48.080Z,21.05
2018-01-15T14:08:15.528Z,20.52
2018-01-15T14:10:42.993Z,17.90
2018-01-15T14:13:10.952Z,18.50
2018-01-15T14:15:38.349Z,29.73
2018-01-15T14:18:05.788Z,25.83
2018-01-15T14:20:34.024Z,37.08
2018-01-15T14:23:05.251Z,23.12
2018-01-15T14:25:32.688Z,21.05
2018-01-15T14:28:00.163Z,16.55
2018-01-15T14:30:27.596Z,16.15
2018-01-15T14:32:55.036Z,15.32
2018-01-15T14:35:24.114Z,16.92
2018-01-15T14:37:51.540Z,16.30
2018-01-15T14:40:18.976Z,16.35
2018-01-15T14:42:46.448Z,15.00
2018-01-15T14:45:13.902Z,15.00
2018-01-15T14:47:41.360Z,15.18
2018-01-15T14:50:10.707Z,15.52
2018-01-15T14:52:38.501Z,15.30
2018-01-15T14:55:06.701Z,15.43
2018-01-15T14:57:34.141Z,15.98
2018-01-15T15:00:01.691Z,16.30
2018-01-15T15:02:29.929Z,15.20
2018-01-15T15:04:57.379Z,15.25
2018-01-15T15:07:25.120Z,15.60
2018-01-15T15:09:52.709Z,31.42
2018-01-15T15:12:20.148Z,17.65
2018-01-15T15:14:47.752Z,16.83
2018-01-15T15:17:15.220Z,16.20
2018-01-15T15:19:43.428Z,16.00
2018-01-15T15:22:22.956Z,16.35
2018-01-15T15:24:50.422Z,13.95
2018-01-15T15:27:17.882Z,17.45
2018-01-15T15:29:45.319Z,16.30
2018-01-15T15:32:14.500Z,19.30
2018-01-15T15:34:42.714Z,20.83
2018-01-15T15:37:10.162Z,17.42
2018-01-15T15:39:37.682Z,19.15
2018-01-15T15:42:08.932Z,16.98
2018-01-15T15:44:36.381Z,18.90
2018-01-15T15:47:18.923Z,17.20
2018-01-15T15:49:47.128Z,18.50
2018-01-15T15:52:14.576Z,18.00
2018-01-15T15:54:42.042Z,17.12
2018-01-15T15:57:10.916Z,18.20
2018-01-15T15:59:38.357Z,16.25
2018-01-15T16:02:06.594Z,16.60
2018-01-15T16:04:34.041Z,15.52
2018-01-15T16:07:01.497Z,15.95
2018-01-15T16:09:29.098Z,16.70
2018-01-15T16:11:57.303Z,14.70
2018-01-15T16:14:35.162Z,17.05
2018-01-15T16:17:02.606Z,14.70
2018-01-15T16:19:30.036Z,12.30
2018-01-15T16:22:09.296Z,13.05
2018-01-15T16:24:36.736Z,12.50
2018-01-15T16:27:04.378Z,14.60
2018-01-15T16:29:31.824Z,12.45
2018-01-15T16:31:59.409Z,13.23
2018-01-15T16:34:33.725Z,11.85
2018-01-15T16:37:01.185Z,12.98
2018-01-15T16:39:28.628Z,13.13
2018-01-15T16:41:56.092Z,10.55
2018-01-15T16:44:24.288Z,11.75
2018-01-15T16:46:58.800Z,9.35
2018-01-15T16:49:26.241Z,12.05
2018-01-15T16:51:54.449Z,13.77
2018-01-15T16:54:21.904Z,9.13
2018-01-15T16:56:56.092Z,8.85
2018-01-15T16:59:23.585Z,8.73
2018-01-15T17:01:51.040Z,9.55
2018-01-15T17:04:18.532Z,9.02
2018-01-15T17:06:46.741Z,8.55
2018-01-15T17:09:14.172Z,8.40
2018-01-15T17:11:41.689Z,8.55
2018-01-15T17:14:09.116Z,8.75
2018-01-15T17:16:36.999Z,7.93
2018-01-15T17:19:04.425Z,7.50
2018-01-15T17:21:31.856Z,9.52
2018-01-15T17:24:00.264Z,8.02
2018-01-15T17:26:27.710Z,7.07
2018-01-15T17:28:55.964Z,7.57
2018-01-15T17:31:24.189Z,6.75
2018-01-15T17:33:51.640Z,6.30
2018-01-15T17:36:19.115Z,7.45
2018-01-15T17:38:46.553Z,6.25
2018-01-15T17:41:13.996Z,6.43
2018-01-15T17:43:45.090Z,6.03
2018-01-15T17:46:12.595Z,5.30
2018-01-15T17:48:40.019Z,5.00
2018-01-15T17:51:07.443Z,5.93
2018-01-15T17:53:34.909Z,5.00
2018-01-15T17:56:02.348Z,5.05
2018-01-15T17:58:29.852Z,5.15
2018-01-15T18:00:57.282Z,5.00
2018-01-15T18:03:26.908Z,5.70
2018-01-15T18:05:54.342Z,4.87
2018-01-15T18:08:21.773Z,4.95
2018-01-15T18:10:49.992Z,4.62
2018-01-15T18:13:17.453Z,4.32
2018-01-15T18:15:44.885Z,4.72
2018-01-15T18:18:12.365Z,4.20
2018-01-15T18:20:39.800Z,3.67
2018-01-15T18:23:07.265Z,4.30
2018-01-15T18:25:35.091Z,3.40
2018-01-15T18:28:03.297Z,3.17
2018-01-15T18:30:30.720Z,4.25
2018-01-15T18:32:58.552Z,3.65
2018-01-15T18:35:25.987Z,3.22
2018-01-15T18:37:53.417Z,4.80
2018-01-15T18:40:23.628Z,3.33
2018-01-15T18:42:51.483Z,3.00
2018-01-15T18:45:18.916Z,3.78
2018-01-15T18:47:46.365Z,3.80
2018-01-15T18:50:13.840Z,3.10
2018-01-15T18:52:59.909Z,7.85
2018-01-15T18:55:27.376Z,2.22
2018-01-15T18:57:56.404Z,2.30
2018-01-15T19:00:23.840Z,2.00
2018-01-15T19:02:51.796Z,2.12
2018-01-15T19:05:19.234Z,1.60
2018-01-15T19:07:46.656Z,1.50
2018-01-15T19:10:14.876Z,1.70
2018-01-15T19:12:43.301Z,1.60
2018-01-15T19:15:10.732Z,1.20
2018-01-15T19:17:38.201Z,1.20
2018-01-15T19:20:05.637Z,1.70
2018-01-15T19:22:37.303Z,1.45
2018-01-15T19:25:04.755Z,1.35
2018-01-15T19:27:32.180Z,1.83
2018-01-15T19:29:59.689Z,2.42
2018-01-15T19:32:27.345Z,0.90
2018-01-15T19:34:58.481Z,1.15
2018-01-15T19:37:45.621Z,2.60
2018-01-15T19:40:13.097Z,6.07
2018-01-15T19:42:41.294Z,1.70
2018-01-15T19:45:14.660Z,2.50
2018-01-15T19:47:48.440Z,6.32
2018-01-15T19:50:21.649Z,2.83
2018-01-15T19:52:54.803Z,3.28
2018-01-15T19:55:28.204Z,8.43
2018-01-15T19:58:01.404Z,8.43
2018-01-15T20:00:34.685Z,6.55
2018-01-15T20:03:07.832Z,4.62
2018-01-15T20:05:41.993Z,1.30
2018-01-15T20:08:16.011Z,4.72
2018-01-15T20:10:58.357Z,1.73
2018-01-15T20:13:26.567Z,6.10
2018-01-15T20:15:56.411Z,1.87
2018-01-15T20:18:23.841Z,2.25
2018-01-15T20:20:51.268Z,1.70
2018-01-15T20:23:19.902Z,1.10
2018-01-15T20:25:51.372Z,0.60
2018-01-15T20:28:18.824Z,0.68
2018-01-15T20:30:46.262Z,1.20
2018-01-15T20:33:15.941Z,0.70
2018-01-15T20:35:44.384Z,0.98
2018-01-15T20:38:12.779Z,1.37
2018-01-15T20:40:40.984Z,1.17
2018-01-15T20:43:09.445Z,3.92
2018-01-15T20:45:37.651Z,0.60
2018-01-15T20:48:05.116Z,1.60
2018-01-15T20:50:32.558Z,1.92
2018-01-15T20:52:59.987Z,1.60
2018-01-15T20:55:28.428Z,1.40
2018-01-15T20:57:55.891Z,2.28
2018-01-15T21:00:23.328Z,4.80
2018-01-15T21:02:50.797Z,3.35
2018-01-15T21:05:18.224Z,0.80
2018-01-15T21:07:45.693Z,1.20
2018-01-15T21:10:19.436Z,1.30
2018-01-15T21:12:47.050Z,1.85
2018-01-15T21:15:14.488Z,1.05
2018-01-15T21:17:41.941Z,0.90
2018-01-15T21:20:09.377Z,0.70
2018-01-15T21:22:36.808Z,0.75
2018-01-15T21:25:04.242Z,0.85
2018-01-15T21:27:31.781Z,0.80
2018-01-15T21:29:59.280Z,1.20
2018-01-15T21:32:26.715Z,0.70
2018-01-15T21:34:54.948Z,0.80
2018-01-15T21:37:22.398Z,0.70
2018-01-15T21:39:58.765Z,0.88
2018-01-15T21:42:26.195Z,0.70
2018-01-15T21:44:53.632Z,2.00
2018-01-15T21:47:22.341Z,0.70
2018-01-15T21:49:49.780Z,0.95
2018-01-15T21:52:17.212Z,0.60
2018-01-15T21:54:44.668Z,0.70
2018-01-15T21:57:12.214Z,1.25
2018-01-15T21:59:39.668Z,0.60
2018-01-15T22:02:09.366Z,0.70
2018-01-15T22:04:38.012Z,1.00
2018-01-15T22:07:06.419Z,0.73
2018-01-15T22:09:33.928Z,0.70
2018-01-15T22:12:01.384Z,0.52
2018-01-15T22:14:28.964Z,0.70
2018-01-15T22:16:58.883Z,0.60
2018-01-15T22:19:27.232Z,0.65
2018-01-15T22:21:54.692Z,0.70
2018-01-15T22:24:22.170Z,0.70
2018-01-15T22:26:49.660Z,0.75
2018-01-15T22:29:18.605Z,0.82
2018-01-15T22:31:46.036Z,0.65
2018-01-15T22:34:14.943Z,0.82
2018-01-15T22:36:43.173Z,1.02
2018-01-15T22:39:10.682Z,0.70
2018-01-15T22:41:39.220Z,0.75
2018-01-15T22:44:06.690Z,1.10
2018-01-15T22:46:34.384Z,1.00
2018-01-15T22:49:01.850Z,1.58
2018-01-15T22:51:34.502Z,0.90
2018-01-15T22:54:01.952Z,1.90
2018-01-15T22:56:30.273Z,1.48
2018-01-15T22:58:57.880Z,1.37
2018-01-15T23:01:25.431Z,1.45
2018-01-15T23:03:52.876Z,1.50
2018-01-15T23:06:20.333Z,1.62
2018-01-15T23:08:48.094Z,1.52
2018-01-15T23:11:19.477Z,2.60
2018-01-15T23:13:46.900Z,1.58
2018-01-15T23:16:14.616Z,1.60
2018-01-15T23:18:43.075Z,1.70
2018-01-15T23:21:10.828Z,1.60
2018-01-15T23:23:38.260Z,1.80
2018-01-15T23:26:05.780Z,2.25
2018-01-15T23:28:33.999Z,2.17
2018-01-15T23:31:01.525Z,3.00
2018-01-15T23:33:29.160Z,2.70
2018-01-15T23:35:57.355Z,2.83
2018-01-15T23:38:24.925Z,3.90
2018-01-15T23:40:52.348Z,4.30
2018-01-15T23:43:19.780Z,3.40
2018-01-15T23:45:47.237Z,3.70
2018-01-15T23:48:14.789Z,5.28
2018-01-15T23:50:43.184Z,5.00
2018-01-15T23:53:10.613Z,5.32
2018-01-15T23:55:38.157Z,6.15
2018-01-15T23:58:05.584Z,6.60
